« Back
NWS Peachtree City, Ga » Text Product » MCN Terminal Aerodrome Forecast


Printer-friendly Version
Current Version              Previous Versions:   1  2  3  4  5  6  7  8  9  

Terminal Aerodrome Forecast

569
FTUS42 KFFC 192300
TAFMCN
TAF
KMCN 192333Z 2000/2024 03014G24KT 6SM -DZ VCSH OVC015
     FM201200 04013G23KT P6SM BKN025
     FM202100 04011KT P6SM BKN040=



USA.gov is the U.S. government's official web portal to all federal, state and local government web resources and services.